sensor_id;sensor_type;location;lat;lon;timestamp;P1;durP1;ratioP1;P2;durP2;ratioP2
58240;SDS011;45058;55.772;38.224;2023-07-28T00:01:28;22.40;;;14.65;;
58240;SDS011;45058;55.772;38.224;2023-07-28T00:03:55;26.38;;;14.77;;
58240;SDS011;45058;55.772;38.224;2023-07-28T00:06:23;19.88;;;14.38;;
58240;SDS011;45058;55.772;38.224;2023-07-28T00:08:49;20.80;;;15.25;;
58240;SDS011;45058;55.772;38.224;2023-07-28T00:11:15;20.25;;;13.75;;
58240;SDS011;45058;55.772;38.224;2023-07-28T00:13:42;22.65;;;14.45;;
58240;SDS011;45058;55.772;38.224;2023-07-28T00:16:08;20.80;;;14.68;;
58240;SDS011;45058;55.772;38.224;2023-07-28T00:18:35;19.02;;;13.65;;
58240;SDS011;45058;55.772;38.224;2023-07-28T00:21:01;21.13;;;13.48;;
58240;SDS011;45058;55.772;38.224;2023-07-28T00:23:30;25.08;;;13.90;;
58240;SDS011;45058;55.772;38.224;2023-07-28T00:25:56;21.20;;;15.35;;
58240;SDS011;45058;55.772;38.224;2023-07-28T00:28:22;19.60;;;15.15;;
58240;SDS011;45058;55.772;38.224;2023-07-28T00:30:51;26.02;;;16.38;;
58240;SDS011;45058;55.772;38.224;2023-07-28T00:33:17;24.73;;;14.15;;
58240;SDS011;45058;55.772;38.224;2023-07-28T00:35:43;26.52;;;13.80;;
58240;SDS011;45058;55.772;38.224;2023-07-28T00:38:09;22.70;;;14.73;;
58240;SDS011;45058;55.772;38.224;2023-07-28T00:40:36;19.33;;;14.25;;
58240;SDS011;45058;55.772;38.224;2023-07-28T00:43:02;25.58;;;14.60;;
58240;SDS011;45058;55.772;38.224;2023-07-28T00:45:28;29.88;;;14.65;;
58240;SDS011;45058;55.772;38.224;2023-07-28T00:47:55;29.77;;;14.50;;
58240;SDS011;45058;55.772;38.224;2023-07-28T00:50:25;20.63;;;13.48;;
58240;SDS011;45058;55.772;38.224;2023-07-28T00:52:51;21.90;;;13.63;;
58240;SDS011;45058;55.772;38.224;2023-07-28T00:55:18;23.73;;;14.23;;
58240;SDS011;45058;55.772;38.224;2023-07-28T00:57:45;23.67;;;14.20;;
58240;SDS011;45058;55.772;38.224;2023-07-28T01:00:11;17.80;;;12.98;;
58240;SDS011;45058;55.772;38.224;2023-07-28T01:02:37;23.63;;;13.82;;
58240;SDS011;45058;55.772;38.224;2023-07-28T01:05:04;23.00;;;13.65;;
58240;SDS011;45058;55.772;38.224;2023-07-28T01:07:42;21.65;;;14.48;;
58240;SDS011;45058;55.772;38.224;2023-07-28T01:10:33;20.20;;;13.38;;
58240;SDS011;45058;55.772;38.224;2023-07-28T01:12:59;18.95;;;15.07;;
58240;SDS011;45058;55.772;38.224;2023-07-28T01:15:25;18.77;;;14.45;;
58240;SDS011;45058;55.772;38.224;2023-07-28T01:17:51;22.13;;;13.55;;
58240;SDS011;45058;55.772;38.224;2023-07-28T01:20:17;25.00;;;14.30;;
58240;SDS011;45058;55.772;38.224;2023-07-28T01:28:21;21.98;;;13.57;;
58240;SDS011;45058;55.772;38.224;2023-07-28T01:30:47;21.50;;;15.27;;
58240;SDS011;45058;55.772;38.224;2023-07-28T01:33:14;24.35;;;13.65;;
58240;SDS011;45058;55.772;38.224;2023-07-28T01:35:39;21.17;;;13.82;;
58240;SDS011;45058;55.772;38.224;2023-07-28T01:38:05;27.35;;;14.82;;
58240;SDS011;45058;55.772;38.224;2023-07-28T01:40:32;22.55;;;13.90;;
58240;SDS011;45058;55.772;38.224;2023-07-28T01:42:58;26.20;;;14.68;;
58240;SDS011;45058;55.772;38.224;2023-07-28T01:45:23;21.75;;;14.40;;
58240;SDS011;45058;55.772;38.224;2023-07-28T01:47:49;23.80;;;13.90;;
58240;SDS011;45058;55.772;38.224;2023-07-28T01:50:16;18.85;;;13.82;;
58240;SDS011;45058;55.772;38.224;2023-07-28T01:52:42;25.65;;;14.68;;
58240;SDS011;45058;55.772;38.224;2023-07-28T01:55:08;19.85;;;14.13;;
58240;SDS011;45058;55.772;38.224;2023-07-28T01:57:34;19.10;;;13.65;;
58240;SDS011;45058;55.772;38.224;2023-07-28T02:00:01;17.85;;;13.60;;
58240;SDS011;45058;55.772;38.224;2023-07-28T02:02:39;20.65;;;15.00;;
58240;SDS011;45058;55.772;38.224;2023-07-28T02:05:05;22.38;;;14.27;;
58240;SDS011;45058;55.772;38.224;2023-07-28T02:07:32;25.83;;;14.80;;
58240;SDS011;45058;55.772;38.224;2023-07-28T02:09:58;24.08;;;15.13;;
58240;SDS011;45058;55.772;38.224;2023-07-28T02:12:24;24.23;;;15.80;;
58240;SDS011;45058;55.772;38.224;2023-07-28T02:14:50;30.48;;;13.90;;
58240;SDS011;45058;55.772;38.224;2023-07-28T02:17:17;23.17;;;13.63;;
58240;SDS011;45058;55.772;38.224;2023-07-28T02:20:02;24.80;;;14.32;;
58240;SDS011;45058;55.772;38.224;2023-07-28T02:22:31;24.00;;;13.40;;
58240;SDS011;45058;55.772;38.224;2023-07-28T02:24:57;23.90;;;14.00;;
58240;SDS011;45058;55.772;38.224;2023-07-28T02:27:30;20.60;;;12.80;;
58240;SDS011;45058;55.772;38.224;2023-07-28T02:29:56;25.08;;;15.13;;
58240;SDS011;45058;55.772;38.224;2023-07-28T02:32:22;20.95;;;13.43;;
58240;SDS011;45058;55.772;38.224;2023-07-28T02:34:48;23.73;;;13.77;;
58240;SDS011;45058;55.772;38.224;2023-07-28T02:37:15;28.05;;;15.02;;
58240;SDS011;45058;55.772;38.224;2023-07-28T02:39:41;29.08;;;16.67;;
58240;SDS011;45058;55.772;38.224;2023-07-28T02:42:07;26.92;;;15.05;;
58240;SDS011;45058;55.772;38.224;2023-07-28T02:44:33;23.67;;;13.90;;
58240;SDS011;45058;55.772;38.224;2023-07-28T02:46:59;25.55;;;13.10;;
58240;SDS011;45058;55.772;38.224;2023-07-28T02:49:27;20.88;;;12.68;;
58240;SDS011;45058;55.772;38.224;2023-07-28T02:51:54;20.73;;;12.45;;
58240;SDS011;45058;55.772;38.224;2023-07-28T02:54:20;20.77;;;13.20;;
58240;SDS011;45058;55.772;38.224;2023-07-28T02:56:49;23.52;;;12.20;;
58240;SDS011;45058;55.772;38.224;2023-07-28T02:59:15;21.20;;;12.27;;
58240;SDS011;45058;55.772;38.224;2023-07-28T03:01:41;17.80;;;12.38;;
58240;SDS011;45058;55.772;38.224;2023-07-28T03:04:07;19.80;;;12.10;;
58240;SDS011;45058;55.772;38.224;2023-07-28T03:06:54;25.08;;;11.80;;
58240;SDS011;45058;55.772;38.224;2023-07-28T03:09:20;21.48;;;11.52;;
58240;SDS011;45058;55.772;38.224;2023-07-28T03:11:59;23.58;;;12.00;;
58240;SDS011;45058;55.772;38.224;2023-07-28T03:14:26;17.63;;;11.93;;
58240;SDS011;45058;55.772;38.224;2023-07-28T03:16:52;24.48;;;11.68;;
58240;SDS011;45058;55.772;38.224;2023-07-28T03:19:18;21.88;;;11.68;;
58240;SDS011;45058;55.772;38.224;2023-07-28T03:21:44;23.00;;;11.43;;
58240;SDS011;45058;55.772;38.224;2023-07-28T03:24:10;20.60;;;11.63;;
58240;SDS011;45058;55.772;38.224;2023-07-28T03:26:36;20.25;;;11.07;;
58240;SDS011;45058;55.772;38.224;2023-07-28T03:29:03;17.75;;;10.45;;
58240;SDS011;45058;55.772;38.224;2023-07-28T03:31:31;18.73;;;10.68;;
58240;SDS011;45058;55.772;38.224;2023-07-28T03:34:03;28.15;;;11.00;;
58240;SDS011;45058;55.772;38.224;2023-07-28T03:36:30;22.55;;;11.63;;
58240;SDS011;45058;55.772;38.224;2023-07-28T03:38:57;18.70;;;10.57;;
58240;SDS011;45058;55.772;38.224;2023-07-28T03:41:24;25.70;;;11.35;;
58240;SDS011;45058;55.772;38.224;2023-07-28T03:43:50;20.33;;;10.80;;
58240;SDS011;45058;55.772;38.224;2023-07-28T03:46:16;20.13;;;11.02;;
58240;SDS011;45058;55.772;38.224;2023-07-28T03:48:42;21.02;;;10.98;;
58240;SDS011;45058;55.772;38.224;2023-07-28T03:51:08;27.35;;;10.88;;
58240;SDS011;45058;55.772;38.224;2023-07-28T03:53:34;21.42;;;11.27;;
58240;SDS011;45058;55.772;38.224;2023-07-28T03:56:01;21.50;;;10.13;;
58240;SDS011;45058;55.772;38.224;2023-07-28T03:58:28;20.55;;;11.23;;
58240;SDS011;45058;55.772;38.224;2023-07-28T04:00:54;27.08;;;11.68;;
58240;SDS011;45058;55.772;38.224;2023-07-28T04:03:21;18.95;;;11.82;;
58240;SDS011;45058;55.772;38.224;2023-07-28T04:05:47;22.20;;;11.05;;
58240;SDS011;45058;55.772;38.224;2023-07-28T04:08:13;23.23;;;12.05;;
58240;SDS011;45058;55.772;38.224;2023-07-28T04:10:39;23.38;;;11.75;;
58240;SDS011;45058;55.772;38.224;2023-07-28T04:13:05;20.63;;;11.80;;
58240;SDS011;45058;55.772;38.224;2023-07-28T04:15:31;17.98;;;11.43;;
58240;SDS011;45058;55.772;38.224;2023-07-28T04:17:57;18.02;;;12.35;;
58240;SDS011;45058;55.772;38.224;2023-07-28T04:20:24;17.98;;;12.48;;
58240;SDS011;45058;55.772;38.224;2023-07-28T04:22:50;18.45;;;11.73;;
58240;SDS011;45058;55.772;38.224;2023-07-28T04:25:16;20.35;;;10.70;;
58240;SDS011;45058;55.772;38.224;2023-07-28T04:27:46;20.00;;;10.50;;
58240;SDS011;45058;55.772;38.224;2023-07-28T04:30:12;15.57;;;9.88;;
58240;SDS011;45058;55.772;38.224;2023-07-28T04:32:38;18.65;;;10.35;;
58240;SDS011;45058;55.772;38.224;2023-07-28T04:35:11;14.85;;;9.68;;
58240;SDS011;45058;55.772;38.224;2023-07-28T04:38:00;15.48;;;9.38;;
58240;SDS011;45058;55.772;38.224;2023-07-28T04:40:46;17.95;;;8.90;;
58240;SDS011;45058;55.772;38.224;2023-07-28T04:43:15;14.70;;;9.45;;
58240;SDS011;45058;55.772;38.224;2023-07-28T04:45:48;18.02;;;9.38;;
58240;SDS011;45058;55.772;38.224;2023-07-28T04:48:18;15.10;;;9.88;;
58240;SDS011;45058;55.772;38.224;2023-07-28T04:50:44;17.50;;;10.35;;
58240;SDS011;45058;55.772;38.224;2023-07-28T04:53:33;14.30;;;9.55;;
58240;SDS011;45058;55.772;38.224;2023-07-28T04:56:14;15.73;;;9.90;;
58240;SDS011;45058;55.772;38.224;2023-07-28T04:58:40;14.20;;;9.82;;
58240;SDS011;45058;55.772;38.224;2023-07-28T05:01:06;20.00;;;10.50;;
58240;SDS011;45058;55.772;38.224;2023-07-28T05:03:35;17.67;;;10.90;;
58240;SDS011;45058;55.772;38.224;2023-07-28T05:06:17;20.33;;;13.07;;
58240;SDS011;45058;55.772;38.224;2023-07-28T05:08:43;16.85;;;12.85;;
58240;SDS011;45058;55.772;38.224;2023-07-28T05:11:09;16.10;;;12.18;;
58240;SDS011;45058;55.772;38.224;2023-07-28T05:13:35;20.85;;;13.93;;
58240;SDS011;45058;55.772;38.224;2023-07-28T05:16:01;15.70;;;11.93;;
58240;SDS011;45058;55.772;38.224;2023-07-28T05:18:50;18.90;;;11.30;;
58240;SDS011;45058;55.772;38.224;2023-07-28T05:21:39;13.82;;;9.93;;
58240;SDS011;45058;55.772;38.224;2023-07-28T05:24:06;16.02;;;9.55;;
58240;SDS011;45058;55.772;38.224;2023-07-28T05:26:35;15.30;;;10.05;;
58240;SDS011;45058;55.772;38.224;2023-07-28T05:29:01;15.93;;;9.68;;
58240;SDS011;45058;55.772;38.224;2023-07-28T05:31:27;23.42;;;11.70;;
58240;SDS011;45058;55.772;38.224;2023-07-28T05:33:53;24.20;;;12.57;;
58240;SDS011;45058;55.772;38.224;2023-07-28T05:36:20;19.60;;;12.05;;
58240;SDS011;45058;55.772;38.224;2023-07-28T05:38:47;19.85;;;12.18;;
58240;SDS011;45058;55.772;38.224;2023-07-28T05:41:13;16.02;;;12.15;;
58240;SDS011;45058;55.772;38.224;2023-07-28T05:43:42;21.13;;;13.18;;
58240;SDS011;45058;55.772;38.224;2023-07-28T05:46:09;22.08;;;11.93;;
58240;SDS011;45058;55.772;38.224;2023-07-28T05:48:36;17.70;;;12.18;;
58240;SDS011;45058;55.772;38.224;2023-07-28T05:51:02;16.73;;;10.82;;
58240;SDS011;45058;55.772;38.224;2023-07-28T05:53:28;15.13;;;9.07;;
58240;SDS011;45058;55.772;38.224;2023-07-28T05:56:00;20.70;;;9.55;;
58240;SDS011;45058;55.772;38.224;2023-07-28T11:27:57;9.07;;;4.90;;
58240;SDS011;45058;55.772;38.224;2023-07-28T11:30:24;10.85;;;5.20;;
58240;SDS011;45058;55.772;38.224;2023-07-28T11:32:51;11.23;;;4.85;;
58240;SDS011;45058;55.772;38.224;2023-07-28T11:35:20;10.00;;;4.40;;
58240;SDS011;45058;55.772;38.224;2023-07-28T11:37:51;9.65;;;4.45;;
58240;SDS011;45058;55.772;38.224;2023-07-28T11:40:20;9.15;;;4.70;;
58240;SDS011;45058;55.772;38.224;2023-07-28T11:42:48;7.20;;;4.00;;
58240;SDS011;45058;55.772;38.224;2023-07-28T11:45:18;8.48;;;4.15;;
58240;SDS011;45058;55.772;38.224;2023-07-28T11:47:55;12.65;;;4.03;;
58240;SDS011;45058;55.772;38.224;2023-07-28T11:50:24;11.63;;;4.82;;
58240;SDS011;45058;55.772;38.224;2023-07-28T11:52:52;13.88;;;6.10;;
58240;SDS011;45058;55.772;38.224;2023-07-28T11:55:18;16.27;;;6.65;;
58240;SDS011;45058;55.772;38.224;2023-07-28T11:57:54;8.15;;;5.60;;
58240;SDS011;45058;55.772;38.224;2023-07-28T12:00:33;13.73;;;6.30;;
58240;SDS011;45058;55.772;38.224;2023-07-28T12:03:04;481.83;;;39.35;;
58240;SDS011;45058;55.772;38.224;2023-07-28T12:05:35;12.98;;;5.97;;
58240;SDS011;45058;55.772;38.224;2023-07-28T12:08:05;8.98;;;6.03;;
58240;SDS011;45058;55.772;38.224;2023-07-28T12:10:33;10.88;;;5.93;;
58240;SDS011;45058;55.772;38.224;2023-07-28T12:13:03;12.18;;;6.93;;
58240;SDS011;45058;55.772;38.224;2023-07-28T12:15:33;11.27;;;8.25;;
58240;SDS011;45058;55.772;38.224;2023-07-28T12:26:59;10.65;;;6.25;;
58240;SDS011;45058;55.772;38.224;2023-07-28T12:30:27;21.45;;;5.70;;
58240;SDS011;45058;55.772;38.224;2023-07-28T12:33:34;20.58;;;6.38;;
58240;SDS011;45058;55.772;38.224;2023-07-28T12:36:00;13.48;;;5.55;;
58240;SDS011;45058;55.772;38.224;2023-07-28T12:38:26;16.00;;;6.70;;
58240;SDS011;45058;55.772;38.224;2023-07-28T12:40:52;10.27;;;5.93;;
58240;SDS011;45058;55.772;38.224;2023-07-28T12:43:18;221.50;;;23.52;;
58240;SDS011;45058;55.772;38.224;2023-07-28T12:45:45;13.82;;;6.30;;
58240;SDS011;45058;55.772;38.224;2023-07-28T12:48:11;11.70;;;5.57;;
58240;SDS011;45058;55.772;38.224;2023-07-28T12:50:37;9.65;;;5.05;;
58240;SDS011;45058;55.772;38.224;2023-07-28T12:53:03;10.32;;;5.40;;
58240;SDS011;45058;55.772;38.224;2023-07-28T12:55:29;11.10;;;6.07;;
58240;SDS011;45058;55.772;38.224;2023-07-28T12:57:56;9.18;;;6.18;;
58240;SDS011;45058;55.772;38.224;2023-07-28T13:00:24;11.23;;;6.55;;
58240;SDS011;45058;55.772;38.224;2023-07-28T13:02:50;11.68;;;6.22;;
58240;SDS011;45058;55.772;38.224;2023-07-28T13:05:24;11.95;;;6.30;;
58240;SDS011;45058;55.772;38.224;2023-07-28T13:07:51;10.23;;;6.60;;
58240;SDS011;45058;55.772;38.224;2023-07-28T13:10:18;10.65;;;6.90;;
58240;SDS011;45058;55.772;38.224;2023-07-28T13:12:50;9.40;;;6.57;;
58240;SDS011;45058;55.772;38.224;2023-07-28T13:15:25;11.60;;;7.68;;
58240;SDS011;45058;55.772;38.224;2023-07-28T13:17:52;13.30;;;8.57;;
58240;SDS011;45058;55.772;38.224;2023-07-28T13:20:25;12.82;;;8.93;;
58240;SDS011;45058;55.772;38.224;2023-07-28T13:22:53;15.90;;;10.23;;
58240;SDS011;45058;55.772;38.224;2023-07-28T13:25:19;30.67;;;12.43;;
58240;SDS011;45058;55.772;38.224;2023-07-28T13:27:46;19.15;;;12.63;;
58240;SDS011;45058;55.772;38.224;2023-07-28T13:30:13;22.05;;;15.15;;
58240;SDS011;45058;55.772;38.224;2023-07-28T13:32:39;22.52;;;16.05;;
58240;SDS011;45058;55.772;38.224;2023-07-28T13:35:07;23.52;;;16.90;;
58240;SDS011;45058;55.772;38.224;2023-07-28T13:37:34;28.73;;;19.30;;
58240;SDS011;45058;55.772;38.224;2023-07-28T13:40:00;28.80;;;18.83;;
58240;SDS011;45058;55.772;38.224;2023-07-28T13:42:28;27.27;;;19.40;;
58240;SDS011;45058;55.772;38.224;2023-07-28T13:44:55;29.20;;;19.02;;
58240;SDS011;45058;55.772;38.224;2023-07-28T13:47:26;27.08;;;20.13;;
58240;SDS011;45058;55.772;38.224;2023-07-28T14:13:58;22.15;;;17.25;;
58240;SDS011;45058;55.772;38.224;2023-07-28T14:16:35;22.30;;;17.48;;
58240;SDS011;45058;55.772;38.224;2023-07-28T14:19:09;20.90;;;16.02;;
58240;SDS011;45058;55.772;38.224;2023-07-28T14:21:43;18.65;;;16.65;;
58240;SDS011;45058;55.772;38.224;2023-07-28T14:24:12;24.55;;;18.15;;
58240;SDS011;45058;55.772;38.224;2023-07-28T14:26:39;25.25;;;18.50;;
58240;SDS011;45058;55.772;38.224;2023-07-28T14:29:10;24.45;;;20.08;;
58240;SDS011;45058;55.772;38.224;2023-07-28T14:31:36;25.15;;;18.48;;
58240;SDS011;45058;55.772;38.224;2023-07-28T14:34:02;23.65;;;18.95;;
58240;SDS011;45058;55.772;38.224;2023-07-28T14:36:28;21.75;;;19.45;;
58240;SDS011;45058;55.772;38.224;2023-07-28T14:38:54;22.85;;;17.75;;
58240;SDS011;45058;55.772;38.224;2023-07-28T14:41:27;20.02;;;15.63;;
58240;SDS011;45058;55.772;38.224;2023-07-28T14:43:57;12.13;;;9.93;;
58240;SDS011;45058;55.772;38.224;2023-07-28T14:46:29;13.05;;;10.15;;
58240;SDS011;45058;55.772;38.224;2023-07-28T14:49:17;13.73;;;9.00;;
58240;SDS011;45058;55.772;38.224;2023-07-28T14:51:49;12.45;;;7.93;;
58240;SDS011;45058;55.772;38.224;2023-07-28T14:54:30;11.45;;;7.88;;
58240;SDS011;45058;55.772;38.224;2023-07-28T14:57:08;11.88;;;6.88;;
58240;SDS011;45058;55.772;38.224;2023-07-28T14:59:45;16.02;;;7.13;;
58240;SDS011;45058;55.772;38.224;2023-07-28T15:02:18;8.98;;;7.03;;
58240;SDS011;45058;55.772;38.224;2023-07-28T15:04:52;7.32;;;5.45;;
58240;SDS011;45058;55.772;38.224;2023-07-28T15:10:03;14.00;;;5.70;;
58240;SDS011;45058;55.772;38.224;2023-07-28T15:12:45;10.93;;;6.43;;
58240;SDS011;45058;55.772;38.224;2023-07-28T15:15:27;10.57;;;5.88;;
58240;SDS011;45058;55.772;38.224;2023-07-28T15:18:04;8.07;;;5.32;;
58240;SDS011;45058;55.772;38.224;2023-07-28T15:20:36;12.13;;;5.95;;
58240;SDS011;45058;55.772;38.224;2023-07-28T15:23:08;7.80;;;5.38;;
58240;SDS011;45058;55.772;38.224;2023-07-28T15:25:38;14.15;;;6.85;;
58240;SDS011;45058;55.772;38.224;2023-07-28T15:28:11;8.23;;;6.45;;
58240;SDS011;45058;55.772;38.224;2023-07-28T15:30:41;12.52;;;6.47;;
58240;SDS011;45058;55.772;38.224;2023-07-28T15:33:13;10.15;;;6.30;;
58240;SDS011;45058;55.772;38.224;2023-07-28T15:35:40;12.88;;;7.43;;
58240;SDS011;45058;55.772;38.224;2023-07-28T15:38:07;11.57;;;7.00;;
58240;SDS011;45058;55.772;38.224;2023-07-28T15:40:34;10.57;;;7.53;;
58240;SDS011;45058;55.772;38.224;2023-07-28T15:43:00;16.48;;;7.93;;
58240;SDS011;45058;55.772;38.224;2023-07-28T15:45:30;9.95;;;7.00;;
58240;SDS011;45058;55.772;38.224;2023-07-28T15:47:57;10.77;;;6.97;;
58240;SDS011;45058;55.772;38.224;2023-07-28T15:50:28;13.73;;;6.65;;
58240;SDS011;45058;55.772;38.224;2023-07-28T15:53:01;9.82;;;6.78;;
58240;SDS011;45058;55.772;38.224;2023-07-28T15:55:27;10.13;;;5.40;;
58240;SDS011;45058;55.772;38.224;2023-07-28T15:57:53;6.00;;;4.35;;
58240;SDS011;45058;55.772;38.224;2023-07-28T16:00:20;11.95;;;4.95;;
58240;SDS011;45058;55.772;38.224;2023-07-28T16:02:50;8.57;;;4.22;;
58240;SDS011;45058;55.772;38.224;2023-07-28T16:05:18;5.82;;;3.80;;
58240;SDS011;45058;55.772;38.224;2023-07-28T16:07:45;10.40;;;4.78;;
58240;SDS011;45058;55.772;38.224;2023-07-28T16:10:11;6.45;;;4.15;;
58240;SDS011;45058;55.772;38.224;2023-07-28T16:12:37;8.52;;;4.50;;
58240;SDS011;45058;55.772;38.224;2023-07-28T16:15:03;13.25;;;5.45;;
58240;SDS011;45058;55.772;38.224;2023-07-28T16:17:30;8.40;;;5.82;;
58240;SDS011;45058;55.772;38.224;2023-07-28T16:19:56;10.70;;;5.60;;
58240;SDS011;45058;55.772;38.224;2023-07-28T16:22:23;11.70;;;5.47;;
58240;SDS011;45058;55.772;38.224;2023-07-28T16:24:49;6.80;;;5.00;;
58240;SDS011;45058;55.772;38.224;2023-07-28T16:27:17;8.80;;;6.00;;
58240;SDS011;45058;55.772;38.224;2023-07-28T16:29:43;10.10;;;6.55;;
58240;SDS011;45058;55.772;38.224;2023-07-28T16:32:09;10.70;;;6.25;;
58240;SDS011;45058;55.772;38.224;2023-07-28T16:34:41;5.38;;;4.75;;
58240;SDS011;45058;55.772;38.224;2023-07-28T16:37:09;8.95;;;5.57;;
58240;SDS011;45058;55.772;38.224;2023-07-28T16:39:39;11.55;;;5.50;;
58240;SDS011;45058;55.772;38.224;2023-07-28T16:42:10;10.55;;;6.10;;
58240;SDS011;45058;55.772;38.224;2023-07-28T16:44:45;12.15;;;6.32;;
58240;SDS011;45058;55.772;38.224;2023-07-28T16:47:18;9.00;;;5.90;;
58240;SDS011;45058;55.772;38.224;2023-07-28T16:49:48;7.93;;;6.10;;
58240;SDS011;45058;55.772;38.224;2023-07-28T16:52:15;13.77;;;5.75;;
58240;SDS011;45058;55.772;38.224;2023-07-28T16:54:50;13.52;;;6.78;;
58240;SDS011;45058;55.772;38.224;2023-07-28T16:57:17;8.73;;;6.03;;
58240;SDS011;45058;55.772;38.224;2023-07-28T16:59:44;11.48;;;5.97;;
58240;SDS011;45058;55.772;38.224;2023-07-28T17:02:10;12.38;;;6.25;;
58240;SDS011;45058;55.772;38.224;2023-07-28T17:04:40;13.95;;;6.53;;
58240;SDS011;45058;55.772;38.224;2023-07-28T17:07:10;7.75;;;6.18;;
58240;SDS011;45058;55.772;38.224;2023-07-28T17:09:39;9.02;;;6.50;;
58240;SDS011;45058;55.772;38.224;2023-07-28T17:12:06;13.75;;;7.22;;
58240;SDS011;45058;55.772;38.224;2023-07-28T17:14:32;11.13;;;7.22;;
58240;SDS011;45058;55.772;38.224;2023-07-28T17:16:59;10.63;;;7.93;;
58240;SDS011;45058;55.772;38.224;2023-07-28T17:19:27;12.32;;;7.10;;
58240;SDS011;45058;55.772;38.224;2023-07-28T17:21:55;11.68;;;8.13;;
58240;SDS011;45058;55.772;38.224;2023-07-28T17:24:23;9.82;;;7.47;;
58240;SDS011;45058;55.772;38.224;2023-07-28T17:26:59;9.73;;;7.35;;
58240;SDS011;45058;55.772;38.224;2023-07-28T17:29:41;14.15;;;8.88;;
58240;SDS011;45058;55.772;38.224;2023-07-28T17:32:20;12.50;;;9.13;;
58240;SDS011;45058;55.772;38.224;2023-07-28T17:34:46;15.98;;;11.40;;
58240;SDS011;45058;55.772;38.224;2023-07-28T17:37:13;14.90;;;9.48;;
58240;SDS011;45058;55.772;38.224;2023-07-28T17:39:41;12.30;;;9.88;;
58240;SDS011;45058;55.772;38.224;2023-07-28T17:42:07;12.60;;;10.27;;
58240;SDS011;45058;55.772;38.224;2023-07-28T17:44:33;13.50;;;9.65;;
58240;SDS011;45058;55.772;38.224;2023-07-28T17:47:00;11.77;;;7.88;;
58240;SDS011;45058;55.772;38.224;2023-07-28T17:49:27;7.95;;;6.70;;
58240;SDS011;45058;55.772;38.224;2023-07-28T17:51:53;12.10;;;6.75;;
58240;SDS011;45058;55.772;38.224;2023-07-28T17:54:19;10.40;;;6.45;;
58240;SDS011;45058;55.772;38.224;2023-07-28T17:56:45;13.57;;;5.88;;
58240;SDS011;45058;55.772;38.224;2023-07-28T17:59:12;7.53;;;5.10;;
58240;SDS011;45058;55.772;38.224;2023-07-28T18:01:38;8.05;;;5.07;;
58240;SDS011;45058;55.772;38.224;2023-07-28T18:04:07;9.45;;;5.25;;
58240;SDS011;45058;55.772;38.224;2023-07-28T18:06:34;8.35;;;5.03;;
58240;SDS011;45058;55.772;38.224;2023-07-28T18:09:00;7.30;;;4.05;;
58240;SDS011;45058;55.772;38.224;2023-07-28T18:11:29;8.27;;;4.10;;
58240;SDS011;45058;55.772;38.224;2023-07-28T18:14:00;7.13;;;4.05;;
58240;SDS011;45058;55.772;38.224;2023-07-28T18:16:34;9.85;;;4.00;;
58240;SDS011;45058;55.772;38.224;2023-07-28T18:19:00;8.23;;;4.30;;
58240;SDS011;45058;55.772;38.224;2023-07-28T18:21:28;9.27;;;4.70;;
58240;SDS011;45058;55.772;38.224;2023-07-28T18:23:58;6.97;;;4.20;;
58240;SDS011;45058;55.772;38.224;2023-07-28T18:26:30;8.35;;;4.30;;
58240;SDS011;45058;55.772;38.224;2023-07-28T18:28:59;7.88;;;4.28;;
58240;SDS011;45058;55.772;38.224;2023-07-28T18:31:40;7.03;;;3.35;;
58240;SDS011;45058;55.772;38.224;2023-07-28T18:34:19;6.55;;;3.10;;
58240;SDS011;45058;55.772;38.224;2023-07-28T18:36:52;11.45;;;4.93;;
58240;SDS011;45058;55.772;38.224;2023-07-28T18:39:19;43.42;;;29.13;;
58240;SDS011;45058;55.772;38.224;2023-07-28T18:41:47;111.82;;;84.45;;
58240;SDS011;45058;55.772;38.224;2023-07-28T18:44:20;181.65;;;143.35;;
58240;SDS011;45058;55.772;38.224;2023-07-28T18:47:00;95.78;;;65.88;;
58240;SDS011;45058;55.772;38.224;2023-07-28T18:49:36;28.75;;;20.38;;
58240;SDS011;45058;55.772;38.224;2023-07-28T18:52:14;60.10;;;41.80;;
58240;SDS011;45058;55.772;38.224;2023-07-28T18:54:49;65.20;;;51.67;;
58240;SDS011;45058;55.772;38.224;2023-07-28T18:57:17;9.30;;;6.15;;
58240;SDS011;45058;55.772;38.224;2023-07-28T18:59:43;11.30;;;6.43;;
58240;SDS011;45058;55.772;38.224;2023-07-28T19:02:09;6.10;;;3.53;;
58240;SDS011;45058;55.772;38.224;2023-07-28T19:04:38;12.10;;;4.95;;
58240;SDS011;45058;55.772;38.224;2023-07-28T19:07:09;5.18;;;2.78;;
58240;SDS011;45058;55.772;38.224;2023-07-28T19:09:36;10.30;;;3.33;;
58240;SDS011;45058;55.772;38.224;2023-07-28T19:12:03;6.93;;;3.47;;
58240;SDS011;45058;55.772;38.224;2023-07-28T19:14:33;7.18;;;3.20;;
58240;SDS011;45058;55.772;38.224;2023-07-28T19:17:15;7.28;;;3.10;;
58240;SDS011;45058;55.772;38.224;2023-07-28T19:19:43;8.52;;;3.30;;
58240;SDS011;45058;55.772;38.224;2023-07-28T19:22:14;6.55;;;3.10;;
58240;SDS011;45058;55.772;38.224;2023-07-28T19:24:40;5.43;;;3.00;;
58240;SDS011;45058;55.772;38.224;2023-07-28T19:27:06;11.40;;;2.88;;
58240;SDS011;45058;55.772;38.224;2023-07-28T19:29:33;6.43;;;3.08;;
58240;SDS011;45058;55.772;38.224;2023-07-28T19:31:59;8.32;;;2.70;;
58240;SDS011;45058;55.772;38.224;2023-07-28T19:34:25;5.45;;;3.40;;
58240;SDS011;45058;55.772;38.224;2023-07-28T19:36:56;5.57;;;2.97;;
58240;SDS011;45058;55.772;38.224;2023-07-28T19:39:23;5.65;;;3.00;;
58240;SDS011;45058;55.772;38.224;2023-07-28T19:41:49;5.07;;;3.33;;
58240;SDS011;45058;55.772;38.224;2023-07-28T19:44:15;9.30;;;3.70;;
58240;SDS011;45058;55.772;38.224;2023-07-28T19:46:43;9.43;;;2.72;;
58240;SDS011;45058;55.772;38.224;2023-07-28T19:49:15;10.50;;;3.28;;
58240;SDS011;45058;55.772;38.224;2023-07-28T19:51:42;9.32;;;3.60;;
58240;SDS011;45058;55.772;38.224;2023-07-28T19:54:08;10.25;;;3.92;;
58240;SDS011;45058;55.772;38.224;2023-07-28T19:56:35;6.88;;;3.85;;
58240;SDS011;45058;55.772;38.224;2023-07-28T19:59:01;14.77;;;3.60;;
58240;SDS011;45058;55.772;38.224;2023-07-28T20:01:29;9.88;;;3.25;;
58240;SDS011;45058;55.772;38.224;2023-07-28T20:03:57;8.65;;;3.75;;
58240;SDS011;45058;55.772;38.224;2023-07-28T20:06:23;8.38;;;4.10;;
58240;SDS011;45058;55.772;38.224;2023-07-28T20:08:50;8.32;;;3.53;;
58240;SDS011;45058;55.772;38.224;2023-07-28T20:11:17;11.30;;;3.92;;
58240;SDS011;45058;55.772;38.224;2023-07-28T20:13:43;8.35;;;3.53;;
58240;SDS011;45058;55.772;38.224;2023-07-28T20:16:12;4.68;;;3.33;;
58240;SDS011;45058;55.772;38.224;2023-07-28T20:18:48;8.15;;;2.70;;
58240;SDS011;45058;55.772;38.224;2023-07-28T20:21:20;5.88;;;2.53;;
58240;SDS011;45058;55.772;38.224;2023-07-28T20:23:47;5.38;;;2.58;;
58240;SDS011;45058;55.772;38.224;2023-07-28T20:26:15;6.55;;;2.80;;
58240;SDS011;45058;55.772;38.224;2023-07-28T20:28:42;6.82;;;2.30;;
58240;SDS011;45058;55.772;38.224;2023-07-28T20:31:08;5.65;;;2.30;;
58240;SDS011;45058;55.772;38.224;2023-07-28T20:33:35;3.80;;;2.75;;
58240;SDS011;45058;55.772;38.224;2023-07-28T20:36:02;3.90;;;2.25;;
58240;SDS011;45058;55.772;38.224;2023-07-28T20:38:30;6.90;;;2.40;;
58240;SDS011;45058;55.772;38.224;2023-07-28T20:40:59;3.97;;;2.55;;